Time;durP1;ratioP1;P1;durP2;ratioP2;P2;SDS_P1;SDS_P2;PMS_P1;PMS_P2;Temp;Humidity;BMP_temperature;BMP_pressure;BME280_temperature;BME280_humidity;BME280_pressure;Samples;Min_cycle;Max_cycle;Signal;HPM_P1;HPM_P2
2023/05/26 00:01:57;;;;;;;12.32;8.68;;;;;;;;;;5050701;28;20622;-62
2023/05/26 00:04:29;;;;;;;10.75;8.52;;;;;;;;;;5043097;28;20574;-62
2023/05/26 00:06:55;;;;;;;10.10;8.95;;;;;;;;;;5029409;28;20041;-62
2023/05/26 00:09:21;;;;;;;12.00;8.52;;;;;;;;;;5027943;28;20551;-64
2023/05/26 00:11:47;;;;;;;10.68;8.23;;;;;;;;;;5027316;28;20076;-61
2023/05/26 00:14:16;;;;;;;12.93;8.93;;;;;;;;;;4994323;28;20385;-61
2023/05/26 00:16:43;;;;;;;13.13;8.45;;;;;;;;;;5002273;28;20079;-61
2023/05/26 00:19:09;;;;;;;11.93;8.75;;;;;;;;;;5009469;28;20041;-60
2023/05/26 00:21:39;;;;;;;12.55;8.85;;;;;;;;;;5012660;28;20063;-61
2023/05/26 00:24:05;;;;;;;10.82;8.85;;;;;;;;;;5028059;28;20061;-61
2023/05/26 00:26:31;;;;;;;12.63;8.48;;;;;;;;;;5001830;28;20041;-61
2023/05/26 00:28:57;;;;;;;12.40;9.32;;;;;;;;;;5028821;28;20052;-62
2023/05/26 00:31:23;;;;;;;12.98;9.52;;;;;;;;;;5011879;28;20052;-61
2023/05/26 00:33:50;;;;;;;12.05;10.30;;;;;;;;;;5031403;28;20043;-61
2023/05/26 00:36:17;;;;;;;12.07;10.70;;;;;;;;;;5002012;28;20045;-61
2023/05/26 00:38:44;;;;;;;11.93;10.15;;;;;;;;;;5032054;28;20037;-60
2023/05/26 00:41:11;;;;;;;10.05;8.77;;;;;;;;;;5010460;28;20044;-60
2023/05/26 00:43:41;;;;;;;11.52;9.05;;;;;;;;;;5028110;28;20056;-60
2023/05/26 00:46:08;;;;;;;13.02;8.93;;;;;;;;;;5027618;28;20142;-61
2023/05/26 00:48:36;;;;;;;11.05;8.57;;;;;;;;;;5029279;28;20049;-64
2023/05/26 00:51:02;;;;;;;11.05;8.77;;;;;;;;;;5028507;28;20170;-61
2023/05/26 00:53:28;;;;;;;11.75;8.57;;;;;;;;;;5019398;28;20045;-61
2023/05/26 00:55:54;;;;;;;11.90;8.15;;;;;;;;;;5026910;28;20025;-61
2023/05/26 00:58:21;;;;;;;12.85;9.05;;;;;;;;;;5024817;28;20101;-61
2023/05/26 01:00:48;;;;;;;11.55;8.90;;;;;;;;;;5023895;28;20172;-61
2023/05/26 01:03:18;;;;;;;14.80;8.88;;;;;;;;;;5022655;28;20061;-60
2023/05/26 01:05:44;;;;;;;10.73;9.50;;;;;;;;;;5023245;28;20054;-61
2023/05/26 01:08:11;;;;;;;15.48;9.07;;;;;;;;;;5021837;28;20060;-63
2023/05/26 01:10:38;;;;;;;12.88;8.20;;;;;;;;;;5013694;28;20033;-61
2023/05/26 01:13:24;;;;;;;13.15;9.35;;;;;;;;;;5008820;28;20488;-60
2023/05/26 01:15:52;;;;;;;11.40;9.45;;;;;;;;;;5007462;28;20072;-62
2023/05/26 01:18:25;;;;;;;12.35;9.75;;;;;;;;;;5029135;28;20492;-60
2023/05/26 01:21:06;;;;;;;13.77;9.82;;;;;;;;;;5026603;28;20037;-61
2023/05/26 01:23:51;;;;;;;14.25;9.50;;;;;;;;;;4996537;28;20400;-60
2023/05/26 01:26:30;;;;;;;11.77;10.05;;;;;;;;;;5003310;28;20456;-61
2023/05/26 01:29:05;;;;;;;15.65;9.95;;;;;;;;;;5011900;28;20061;-59
2023/05/26 01:31:34;;;;;;;12.75;8.90;;;;;;;;;;5026378;28;20043;-58
2023/05/26 01:34:02;;;;;;;12.20;9.13;;;;;;;;;;5029512;28;20542;-61
2023/05/26 01:36:28;;;;;;;10.73;8.40;;;;;;;;;;5026077;28;20416;-60
2023/05/26 01:38:56;;;;;;;10.55;9.15;;;;;;;;;;4976682;28;20064;-61
2023/05/26 01:41:30;;;;;;;17.30;8.82;;;;;;;;;;5017382;28;20560;-61
2023/05/26 01:44:11;;;;;;;12.40;8.60;;;;;;;;;;5002514;28;20236;-61
2023/05/26 01:46:50;;;;;;;12.27;8.40;;;;;;;;;;5004626;28;20042;-60
2023/05/26 01:49:16;;;;;;;14.82;10.23;;;;;;;;;;5019938;28;20568;-61
2023/05/26 01:51:53;;;;;;;11.77;9.07;;;;;;;;;;5019080;28;20029;-61
2023/05/26 01:54:21;;;;;;;13.85;9.10;;;;;;;;;;5003207;28;20172;-60
2023/05/26 01:56:46;;;;;;;13.05;9.40;;;;;;;;;;5013506;28;20034;-61
2023/05/26 01:59:12;;;;;;;15.90;9.85;;;;;;;;;;5005122;28;20044;-61
2023/05/26 02:01:39;;;;;;;13.10;8.70;;;;;;;;;;5009089;28;20149;-61
2023/05/26 02:04:05;;;;;;;16.05;9.40;;;;;;;;;;5019766;28;20030;-60
2023/05/26 02:06:30;;;;;;;13.73;9.55;;;;;;;;;;5024008;28;20506;-61
2023/05/26 02:08:56;;;;;;;13.77;9.27;;;;;;;;;;5006798;28;20058;-61
2023/05/26 02:11:21;;;;;;;16.02;9.27;;;;;;;;;;5007384;28;20030;-61
2023/05/26 02:13:48;;;;;;;15.02;10.32;;;;;;;;;;5022442;28;20021;-61
2023/05/26 02:16:13;;;;;;;13.20;9.35;;;;;;;;;;4995155;28;20029;-61
2023/05/26 02:18:40;;;;;;;15.73;10.57;;;;;;;;;;5006562;28;20415;-59
2023/05/26 02:21:05;;;;;;;12.32;10.20;;;;;;;;;;5022280;28;20484;-60
2023/05/26 02:23:31;;;;;;;12.63;9.40;;;;;;;;;;5007864;28;20049;-60
2023/05/26 02:25:56;;;;;;;17.50;9.48;;;;;;;;;;5024448;28;20025;-66
2023/05/26 02:28:22;;;;;;;13.85;10.63;;;;;;;;;;5022724;28;20033;-61
2023/05/26 02:30:48;;;;;;;13.70;9.73;;;;;;;;;;5023223;28;20085;-60
2023/05/26 02:33:13;;;;;;;15.13;9.95;;;;;;;;;;5004411;28;20034;-60
2023/05/26 02:35:40;;;;;;;16.42;10.32;;;;;;;;;;5011166;28;20417;-60
2023/05/26 02:38:05;;;;;;;14.73;9.95;;;;;;;;;;5022317;28;20040;-60
2023/05/26 02:40:31;;;;;;;16.08;9.95;;;;;;;;;;5022706;28;20106;-60
2023/05/26 02:42:59;;;;;;;12.65;9.23;;;;;;;;;;5023607;28;20131;-63
2023/05/26 02:45:24;;;;;;;13.30;10.05;;;;;;;;;;5024899;28;20026;-62
2023/05/26 02:47:50;;;;;;;14.45;9.90;;;;;;;;;;5005216;28;20153;-59
2023/05/26 02:50:17;;;;;;;18.77;10.02;;;;;;;;;;5023600;28;20143;-60
2023/05/26 02:52:43;;;;;;;14.38;9.93;;;;;;;;;;5023182;28;20045;-59
2023/05/26 02:55:10;;;;;;;17.20;11.13;;;;;;;;;;5024422;28;20115;-61
2023/05/26 02:57:35;;;;;;;15.00;9.93;;;;;;;;;;5012450;28;20507;-60
2023/05/26 03:00:01;;;;;;;15.35;9.82;;;;;;;;;;5023807;28;20523;-61
2023/05/26 03:02:27;;;;;;;17.17;11.23;;;;;;;;;;5023415;28;20025;-62
2023/05/26 03:04:53;;;;;;;18.45;9.90;;;;;;;;;;5005966;28;20096;-61
2023/05/26 03:07:18;;;;;;;13.85;10.90;;;;;;;;;;5004728;28;20050;-61
2023/05/26 03:09:44;;;;;;;18.10;11.90;;;;;;;;;;5021587;28;20604;-61
2023/05/26 03:12:12;;;;;;;17.70;11.50;;;;;;;;;;5022943;28;20082;-63
2023/05/26 03:14:37;;;;;;;17.75;11.57;;;;;;;;;;5004825;28;20418;-64
2023/05/26 03:17:03;;;;;;;19.67;11.75;;;;;;;;;;5005701;28;20107;-63
2023/05/26 03:19:28;;;;;;;14.88;11.73;;;;;;;;;;5024325;28;20151;-64
2023/05/26 03:21:56;;;;;;;15.18;10.88;;;;;;;;;;5000937;28;20131;-65
2023/05/26 03:24:21;;;;;;;16.17;10.25;;;;;;;;;;5001652;28;20043;-64
2023/05/26 03:26:47;;;;;;;18.33;12.32;;;;;;;;;;5004380;28;20098;-63
2023/05/26 03:29:13;;;;;;;15.20;11.48;;;;;;;;;;5005080;28;20078;-60
2023/05/26 03:31:39;;;;;;;17.13;11.32;;;;;;;;;;5004837;28;20056;-61
2023/05/26 03:34:05;;;;;;;16.75;11.85;;;;;;;;;;5003900;28;20037;-61
2023/05/26 03:36:30;;;;;;;17.10;10.48;;;;;;;;;;5020284;28;20025;-61
2023/05/26 03:39:12;;;;;;;21.27;12.10;;;;;;;;;;5003689;28;20036;-61
2023/05/26 03:41:38;;;;;;;19.30;13.43;;;;;;;;;;5021178;28;20037;-61
2023/05/26 03:44:04;;;;;;;16.38;11.05;;;;;;;;;;5019891;28;20397;-61
2023/05/26 03:46:30;;;;;;;15.07;11.57;;;;;;;;;;4992803;28;20061;-61
2023/05/26 03:48:56;;;;;;;15.45;11.40;;;;;;;;;;5009623;28;20641;-61
2023/05/26 03:51:21;;;;;;;18.92;12.25;;;;;;;;;;5004342;28;20041;-61
2023/05/26 03:53:47;;;;;;;20.02;12.52;;;;;;;;;;5002788;28;20059;-61
2023/05/26 03:56:14;;;;;;;15.50;11.15;;;;;;;;;;5004584;28;20033;-61
2023/05/26 03:58:42;;;;;;;14.20;10.85;;;;;;;;;;5003370;28;20767;-61
2023/05/26 04:01:08;;;;;;;16.40;10.77;;;;;;;;;;5004567;28;20368;-61
2023/05/26 04:03:33;;;;;;;16.90;12.40;;;;;;;;;;5010339;28;20034;-61
2023/05/26 04:06:00;;;;;;;13.65;10.35;;;;;;;;;;5022371;28;20053;-61
2023/05/26 04:08:26;;;;;;;18.10;11.88;;;;;;;;;;5020571;28;20037;-61
2023/05/26 04:10:51;;;;;;;16.60;10.60;;;;;;;;;;5021649;28;20042;-60
2023/05/26 04:13:16;;;;;;;21.40;13.32;;;;;;;;;;5019940;28;20075;-61
2023/05/26 04:15:42;;;;;;;14.82;11.30;;;;;;;;;;5005024;28;20041;-61
2023/05/26 04:18:07;;;;;;;12.85;10.23;;;;;;;;;;5019082;28;20131;-61
2023/05/26 04:20:33;;;;;;;14.05;9.82;;;;;;;;;;5020293;28;20396;-61
2023/05/26 04:22:59;;;;;;;15.45;11.43;;;;;;;;;;5020373;28;20037;-61
2023/05/26 04:25:27;;;;;;;13.52;10.35;;;;;;;;;;5022950;28;20408;-61
2023/05/26 04:27:58;;;;;;;14.60;9.98;;;;;;;;;;5002578;28;20041;-61
2023/05/26 04:30:26;;;;;;;14.10;10.18;;;;;;;;;;5021315;28;20401;-61
2023/05/26 04:33:22;;;;;;;17.20;11.65;;;;;;;;;;4985995;28;20069;-61
2023/05/26 04:35:57;;;;;;;17.17;10.73;;;;;;;;;;4970228;28;20045;-61
2023/05/26 04:38:23;;;;;;;16.38;12.55;;;;;;;;;;4985332;28;20051;-62
2023/05/26 04:40:49;;;;;;;18.48;10.40;;;;;;;;;;4985575;28;20042;-62
2023/05/26 04:43:15;;;;;;;14.63;9.93;;;;;;;;;;4970395;28;20042;-61
2023/05/26 04:45:42;;;;;;;15.90;10.70;;;;;;;;;;4985784;28;20045;-62
2023/05/26 04:48:08;;;;;;;15.63;10.35;;;;;;;;;;4980022;28;20041;-61
2023/05/26 04:50:38;;;;;;;14.52;10.48;;;;;;;;;;4970184;28;20060;-61
2023/05/26 04:53:05;;;;;;;15.65;11.07;;;;;;;;;;4984895;28;20141;-62
2023/05/26 04:55:31;;;;;;;12.88;9.93;;;;;;;;;;4971562;28;20061;-62
2023/05/26 04:57:56;;;;;;;16.67;9.05;;;;;;;;;;4986788;28;20965;-62
2023/05/26 05:00:22;;;;;;;12.05;10.00;;;;;;;;;;4969857;28;20038;-61
2023/05/26 05:02:52;;;;;;;13.15;9.98;;;;;;;;;;4985920;28;20474;-59
2023/05/26 05:05:39;;;;;;;14.02;10.13;;;;;;;;;;4970074;28;20587;-59
2023/05/26 05:08:04;;;;;;;13.48;9.52;;;;;;;;;;4968570;28;20045;-62
2023/05/26 05:10:30;;;;;;;14.90;10.88;;;;;;;;;;5002196;28;20056;-64
2023/05/26 05:12:55;;;;;;;14.80;10.77;;;;;;;;;;5018704;28;20528;-62
2023/05/26 05:15:22;;;;;;;13.15;9.38;;;;;;;;;;5021230;28;20110;-61
2023/05/26 05:17:48;;;;;;;14.43;10.60;;;;;;;;;;5017802;28;20048;-62
2023/05/26 05:20:13;;;;;;;14.00;10.30;;;;;;;;;;5002963;28;20435;-62
2023/05/26 05:22:39;;;;;;;13.50;9.15;;;;;;;;;;4993197;28;20069;-63
2023/05/26 05:25:05;;;;;;;15.07;9.85;;;;;;;;;;5001225;28;20135;-61
2023/05/26 05:27:31;;;;;;;13.63;10.98;;;;;;;;;;5022485;28;20038;-62
2023/05/26 05:29:57;;;;;;;12.32;9.27;;;;;;;;;;5003122;28;20056;-62
2023/05/26 05:32:23;;;;;;;13.38;8.98;;;;;;;;;;5018688;28;20037;-62
2023/05/26 05:34:49;;;;;;;13.65;10.00;;;;;;;;;;4992732;28;20038;-61
2023/05/26 05:37:14;;;;;;;10.95;9.63;;;;;;;;;;5016740;28;20042;-61
2023/05/26 05:39:40;;;;;;;14.10;10.77;;;;;;;;;;5014432;28;20033;-62
2023/05/26 05:42:07;;;;;;;13.90;9.45;;;;;;;;;;4986936;28;20575;-61
2023/05/26 05:44:32;;;;;;;14.60;9.90;;;;;;;;;;5002293;28;20033;-61
2023/05/26 05:46:58;;;;;;;19.70;10.52;;;;;;;;;;5004619;28;20045;-61
2023/05/26 05:49:32;;;;;;;14.48;9.68;;;;;;;;;;5021332;28;20041;-61
2023/05/26 05:51:57;;;;;;;15.35;9.60;;;;;;;;;;5003553;28;20045;-61
2023/05/26 05:54:23;;;;;;;12.27;10.07;;;;;;;;;;5018816;28;20092;-61
2023/05/26 05:56:48;;;;;;;14.32;9.98;;;;;;;;;;5020746;28;20100;-61
2023/05/26 05:59:18;;;;;;;17.10;9.95;;;;;;;;;;5000552;28;20125;-61
2023/05/26 06:01:43;;;;;;;14.35;9.27;;;;;;;;;;5019343;28;20472;-62
2023/05/26 06:04:09;;;;;;;18.67;9.68;;;;;;;;;;5001609;28;20041;-62
2023/05/26 06:06:35;;;;;;;11.73;10.00;;;;;;;;;;4985775;28;20092;-62
2023/05/26 06:09:02;;;;;;;14.50;9.93;;;;;;;;;;5001464;28;20041;-61
2023/05/26 06:11:28;;;;;;;14.65;10.10;;;;;;;;;;5002147;28;20042;-61
2023/05/26 06:13:53;;;;;;;11.38;8.98;;;;;;;;;;5003272;28;20606;-62
2023/05/26 06:16:19;;;;;;;13.73;9.20;;;;;;;;;;5021141;28;20132;-61
2023/05/26 06:18:45;;;;;;;10.10;8.73;;;;;;;;;;5020457;28;20045;-62
2023/05/26 06:21:14;;;;;;;16.52;10.27;;;;;;;;;;4987589;28;20030;-61
2023/05/26 06:23:44;;;;;;;10.73;8.50;;;;;;;;;;4992349;28;20508;-61
2023/05/26 06:26:10;;;;;;;11.90;8.52;;;;;;;;;;5003605;28;20156;-61
2023/05/26 06:28:35;;;;;;;15.93;9.85;;;;;;;;;;5000324;28;20091;-61
2023/05/26 06:31:01;;;;;;;15.90;9.52;;;;;;;;;;5004106;28;20353;-61
2023/05/26 06:33:39;;;;;;;12.70;8.75;;;;;;;;;;5001085;28;20076;-61
2023/05/26 06:36:04;;;;;;;11.50;8.30;;;;;;;;;;5002083;28;20136;-61
2023/05/26 06:38:30;;;;;;;11.80;9.30;;;;;;;;;;5001916;28;20045;-62
2023/05/26 06:41:00;;;;;;;10.90;9.25;;;;;;;;;;5002158;28;20045;-61
2023/05/26 06:43:26;;;;;;;12.10;8.35;;;;;;;;;;5005519;28;20045;-62
2023/05/26 06:45:52;;;;;;;13.68;8.55;;;;;;;;;;4988453;28;20033;-61
2023/05/26 06:48:18;;;;;;;13.80;8.57;;;;;;;;;;4998379;28;20052;-61
2023/05/26 06:51:03;;;;;;;15.07;9.57;;;;;;;;;;5022573;28;20049;-61
2023/05/26 06:53:30;;;;;;;9.88;8.48;;;;;;;;;;5004124;28;20067;-62
2023/05/26 06:55:55;;;;;;;12.38;8.93;;;;;;;;;;4997704;28;20041;-61
2023/05/26 06:58:21;;;;;;;14.27;9.07;;;;;;;;;;5005189;28;20429;-62
2023/05/26 07:00:56;;;;;;;11.85;8.30;;;;;;;;;;5004665;28;20111;-62
2023/05/26 07:03:22;;;;;;;10.82;8.52;;;;;;;;;;4995881;28;20477;-61
2023/05/26 07:05:51;;;;;;;13.15;9.80;;;;;;;;;;5007565;28;20476;-62
2023/05/26 07:08:16;;;;;;;13.45;8.98;;;;;;;;;;5022912;28;20184;-62
2023/05/26 07:10:45;;;;;;;41.15;19.45;;;;;;;;;;5014617;28;20503;-62
2023/05/26 07:13:10;;;;;;;195.52;70.82;;;;;;;;;;5037095;28;20033;-62
2023/05/26 07:15:37;;;;;;;22.25;12.43;;;;;;;;;;5038464;28;20489;-62
2023/05/26 07:18:06;;;;;;;12.32;8.60;;;;;;;;;;5035994;28;20049;-62
2023/05/26 07:20:31;;;;;;;17.33;11.35;;;;;;;;;;5022977;28;20597;-63
2023/05/26 07:22:57;;;;;;;13.85;9.20;;;;;;;;;;5035720;28;20064;-63
2023/05/26 07:25:30;;;;;;;15.00;8.98;;;;;;;;;;5036570;28;20053;-63
2023/05/26 07:27:57;;;;;;;13.70;8.48;;;;;;;;;;5038373;28;20040;-63
2023/05/26 07:30:23;;;;;;;11.77;9.10;;;;;;;;;;5019866;28;20492;-62
2023/05/26 07:33:00;;;;;;;11.73;7.95;;;;;;;;;;5023370;28;20037;-61
2023/05/26 07:35:26;;;;;;;10.30;7.85;;;;;;;;;;5037399;28;20044;-62
2023/05/26 07:37:52;;;;;;;9.55;7.93;;;;;;;;;;5023049;28;20918;-61
2023/05/26 07:40:17;;;;;;;11.45;8.70;;;;;;;;;;5036277;28;20088;-61
2023/05/26 07:42:43;;;;;;;11.07;8.30;;;;;;;;;;5037199;28;20045;-61
2023/05/26 07:45:08;;;;;;;11.85;8.77;;;;;;;;;;5022794;28;20041;-61
2023/05/26 07:47:34;;;;;;;10.35;8.75;;;;;;;;;;5036976;28;20499;-62
2023/05/26 07:50:00;;;;;;;14.48;10.02;;;;;;;;;;5013038;28;20041;-62
2023/05/26 07:52:26;;;;;;;11.85;9.20;;;;;;;;;;5035691;28;20078;-61
2023/05/26 07:54:52;;;;;;;11.00;8.45;;;;;;;;;;5018833;28;20605;-60
2023/05/26 07:57:17;;;;;;;12.95;8.18;;;;;;;;;;5037276;28;20159;-61
2023/05/26 07:59:43;;;;;;;11.02;8.38;;;;;;;;;;5036138;28;20033;-61
2023/05/26 08:02:10;;;;;;;13.85;8.18;;;;;;;;;;5028461;28;20098;-61
2023/05/26 08:04:35;;;;;;;11.73;8.50;;;;;;;;;;5021729;28;20049;-62
2023/05/26 08:07:01;;;;;;;15.10;8.02;;;;;;;;;;5042199;28;20132;-61
2023/05/26 08:09:26;;;;;;;14.35;8.30;;;;;;;;;;5041956;28;20040;-62
2023/05/26 08:11:52;;;;;;;14.25;8.90;;;;;;;;;;5043311;28;20037;-62
2023/05/26 08:14:19;;;;;;;9.48;7.82;;;;;;;;;;5041919;28;20044;-62
2023/05/26 08:16:44;;;;;;;14.27;7.35;;;;;;;;;;5042296;28;20120;-63
2023/05/26 08:19:10;;;;;;;8.35;7.55;;;;;;;;;;5041930;28;20473;-62
2023/05/26 08:21:35;;;;;;;9.30;7.82;;;;;;;;;;5046911;28;20134;-62
2023/05/26 08:24:01;;;;;;;10.35;8.05;;;;;;;;;;5041664;28;20044;-62
2023/05/26 08:26:26;;;;;;;10.32;7.82;;;;;;;;;;5040390;28;20120;-62
2023/05/26 08:28:51;;;;;;;9.70;7.78;;;;;;;;;;5042041;28;20053;-62
2023/05/26 08:31:18;;;;;;;9.65;8.10;;;;;;;;;;5042215;28;20441;-62
2023/05/26 08:33:44;;;;;;;12.77;8.18;;;;;;;;;;5042833;28;20446;-61
2023/05/26 08:36:09;;;;;;;10.48;7.95;;;;;;;;;;5040353;28;20577;-62
2023/05/26 08:38:34;;;;;;;11.75;7.35;;;;;;;;;;5041612;28;20114;-62
2023/05/26 08:41:02;;;;;;;10.13;7.90;;;;;;;;;;5041884;28;20167;-61
2023/05/26 08:43:33;;;;;;;8.18;7.38;;;;;;;;;;5041627;28;20033;-62
2023/05/26 08:46:01;;;;;;;10.52;8.30;;;;;;;;;;5038172;28;20122;-62
2023/05/26 08:48:26;;;;;;;11.57;8.25;;;;;;;;;;5040980;28;20040;-62
2023/05/26 08:50:54;;;;;;;10.65;7.65;;;;;;;;;;5037199;28;20099;-61
2023/05/26 08:53:20;;;;;;;10.93;8.48;;;;;;;;;;5041300;28;20083;-62
2023/05/26 08:55:46;;;;;;;8.40;7.28;;;;;;;;;;5040671;28;20152;-61
2023/05/26 08:58:12;;;;;;;11.00;7.25;;;;;;;;;;5041773;28;20360;-62
2023/05/26 09:00:39;;;;;;;9.55;7.53;;;;;;;;;;5040122;28;20457;-61
2023/05/26 09:03:04;;;;;;;9.15;7.50;;;;;;;;;;5041494;28;20029;-61
2023/05/26 09:05:30;;;;;;;10.95;7.60;;;;;;;;;;5025861;28;20266;-60
2023/05/26 09:07:56;;;;;;;8.32;7.05;;;;;;;;;;5020228;28;20048;-61
2023/05/26 09:10:22;;;;;;;8.30;7.00;;;;;;;;;;5019341;28;20041;-61
2023/05/26 09:12:48;;;;;;;8.63;6.78;;;;;;;;;;5021350;28;20491;-62
2023/05/26 09:15:22;;;;;;;9.60;7.95;;;;;;;;;;5019457;28;20319;-61
2023/05/26 09:17:48;;;;;;;8.98;7.05;;;;;;;;;;5001734;28;20045;-61
2023/05/26 09:20:14;;;;;;;11.23;7.75;;;;;;;;;;5018883;28;20714;-60
2023/05/26 09:22:39;;;;;;;10.18;7.70;;;;;;;;;;4990555;28;20397;-61
2023/05/26 09:25:05;;;;;;;8.50;7.28;;;;;;;;;;5020012;28;20044;-61
2023/05/26 09:27:30;;;;;;;9.32;6.95;;;;;;;;;;5018446;28;20068;-62
2023/05/26 09:30:00;;;;;;;8.55;7.53;;;;;;;;;;5019788;28;20052;-61
2023/05/26 09:32:26;;;;;;;10.43;6.85;;;;;;;;;;5003760;28;20068;-61
2023/05/26 09:34:52;;;;;;;9.90;7.47;;;;;;;;;;5019237;28;20033;-61
2023/05/26 09:37:18;;;;;;;13.55;6.82;;;;;;;;;;5020862;28;20037;-61
2023/05/26 09:39:43;;;;;;;10.10;7.05;;;;;;;;;;5019406;28;20580;-62
2023/05/26 09:42:09;;;;;;;7.97;6.90;;;;;;;;;;5001150;28;20917;-59
2023/05/26 09:44:34;;;;;;;10.43;7.30;;;;;;;;;;5002757;28;20033;-57
2023/05/26 09:47:00;;;;;;;7.55;6.72;;;;;;;;;;5019418;28;20497;-60
2023/05/26 09:49:26;;;;;;;9.85;7.28;;;;;;;;;;5020796;28;20077;-59
2023/05/26 09:51:51;;;;;;;7.40;6.32;;;;;;;;;;5020515;28;20611;-59
2023/05/26 09:54:17;;;;;;;7.80;6.88;;;;;;;;;;5021275;28;20480;-59
2023/05/26 09:56:52;;;;;;;10.60;6.30;;;;;;;;;;5019627;28;20041;-59
2023/05/26 09:59:21;;;;;;;12.48;7.05;;;;;;;;;;5021040;28;20042;-60
2023/05/26 10:01:47;;;;;;;8.82;6.88;;;;;;;;;;5018680;28;20025;-58
2023/05/26 10:04:13;;;;;;;9.20;6.60;;;;;;;;;;5019856;28;20451;-59
2023/05/26 10:06:40;;;;;;;9.40;6.72;;;;;;;;;;5019849;28;20040;-62
2023/05/26 10:09:06;;;;;;;11.30;7.18;;;;;;;;;;5021860;28;20588;-59
2023/05/26 10:11:36;;;;;;;14.23;6.93;;;;;;;;;;5021384;28;20120;-60
2023/05/26 10:14:02;;;;;;;12.30;7.45;;;;;;;;;;5018361;28;20146;-59
2023/05/26 10:16:27;;;;;;;9.27;6.75;;;;;;;;;;5021391;28;20171;-59
2023/05/26 10:18:53;;;;;;;10.30;7.00;;;;;;;;;;5024079;28;20045;-59
2023/05/26 10:21:21;;;;;;;10.05;7.70;;;;;;;;;;5004837;28;20516;-58
2023/05/26 10:24:10;;;;;;;9.02;6.53;;;;;;;;;;5023466;28;20029;-59
2023/05/26 10:26:47;;;;;;;8.85;6.40;;;;;;;;;;5019497;28;20076;-59
2023/05/26 10:29:16;;;;;;;9.90;6.60;;;;;;;;;;5023267;28;20676;-59
2023/05/26 10:31:42;;;;;;;8.10;6.97;;;;;;;;;;5020892;28;20037;-60
2023/05/26 10:34:31;;;;;;;9.98;6.25;;;;;;;;;;5024041;28;20038;-58
2023/05/26 10:37:00;;;;;;;7.35;5.45;;;;;;;;;;5022945;28;20041;-60
2023/05/26 10:39:25;;;;;;;8.57;6.03;;;;;;;;;;5005074;28;20036;-59
2023/05/26 10:41:54;;;;;;;8.65;6.05;;;;;;;;;;5022268;28;20493;-59
2023/05/26 10:44:40;;;;;;;8.13;6.30;;;;;;;;;;5023434;28;20344;-59
2023/05/26 10:47:05;;;;;;;;;;;;;;;;;;5023800;28;20208;-60
2023/05/26 10:49:37;;;;;;;10.65;6.80;;;;;;;;;;5024126;28;19913;-58
2023/05/26 10:52:18;;;;;;;7.68;6.15;;;;;;;;;;5023402;28;20509;-59
2023/05/26 10:54:44;;;;;;;12.82;6.03;;;;;;;;;;5023006;28;20189;-62
2023/05/26 10:57:36;;;;;;;9.20;6.63;;;;;;;;;;5023176;28;20140;-60
2023/05/26 11:00:18;;;;;;;9.70;6.18;;;;;;;;;;5018943;28;20041;-59
2023/05/26 11:02:44;;;;;;;9.93;6.75;;;;;;;;;;5022360;28;20080;-60
2023/05/26 11:05:30;;;;;;;6.75;6.07;;;;;;;;;;5021437;28;20069;-60
2023/05/26 11:07:56;;;;;;;7.30;5.57;;;;;;;;;;5023363;28;20096;-61
2023/05/26 11:10:21;;;;;;;9.23;7.15;;;;;;;;;;5023080;28;20045;-60
2023/05/26 11:12:54;;;;;;;6.95;5.72;;;;;;;;;;5021883;28;20180;-59
2023/05/26 11:15:29;;;;;;;13.68;7.03;;;;;;;;;;5022085;28;20519;-59
2023/05/26 11:18:01;;;;;;;8.13;5.88;;;;;;;;;;5022847;28;20083;-60
2023/05/26 11:20:27;;;;;;;7.80;6.18;;;;;;;;;;5021772;28;20595;-58
2023/05/26 11:22:53;;;;;;;8.32;6.22;;;;;;;;;;5022913;28;20041;-59
2023/05/26 11:25:19;;;;;;;10.15;7.25;;;;;;;;;;5024605;28;20044;-59
2023/05/26 11:27:45;;;;;;;8.05;6.57;;;;;;;;;;5010439;28;20041;-58
2023/05/26 11:30:11;;;;;;;10.48;6.68;;;;;;;;;;5004386;28;20033;-61
2023/05/26 11:32:43;;;;;;;7.00;6.20;;;;;;;;;;5022445;28;20370;-60
2023/05/26 11:35:24;;;;;;;9.32;7.10;;;;;;;;;;5023167;28;20198;-62
2023/05/26 11:37:50;;;;;;;9.82;6.68;;;;;;;;;;5023325;28;20095;-67
2023/05/26 11:40:18;;;;;;;7.95;6.75;;;;;;;;;;5004670;28;20034;-67
2023/05/26 11:42:44;;;;;;;7.93;6.47;;;;;;;;;;5021558;28;20563;-68
2023/05/26 11:45:11;;;;;;;11.20;6.85;;;;;;;;;;5022589;28;20038;-67
2023/05/26 11:47:36;;;;;;;9.57;6.72;;;;;;;;;;5005132;28;20603;-69
2023/05/26 11:50:11;;;;;;;9.50;6.32;;;;;;;;;;5005392;28;20473;-68
2023/05/26 11:52:47;;;;;;;7.85;7.03;;;;;;;;;;5021545;28;20499;-69
2023/05/26 11:55:13;;;;;;;9.18;5.85;;;;;;;;;;5023021;28;20408;-68
2023/05/26 11:57:40;;;;;;;7.25;6.03;;;;;;;;;;5021505;28;20041;-68
2023/05/26 12:00:15;;;;;;;11.05;6.28;;;;;;;;;;5004994;28;20430;-69
2023/05/26 12:02:41;;;;;;;10.57;6.65;;;;;;;;;;5022598;28;20064;-68
2023/05/26 12:05:20;;;;;;;9.23;6.55;;;;;;;;;;5020642;28;20144;-67
2023/05/26 12:07:59;;;;;;;8.38;6.35;;;;;;;;;;5021097;28;20453;-68
2023/05/26 12:10:27;;;;;;;6.38;5.60;;;;;;;;;;5021193;28;20065;-67
2023/05/26 12:12:53;;;;;;;9.95;6.30;;;;;;;;;;5021625;28;21209;-68
2023/05/26 12:15:22;;;;;;;10.60;6.78;;;;;;;;;;5020616;28;20035;-68
2023/05/26 12:17:49;;;;;;;9.35;7.10;;;;;;;;;;5004411;28;20039;-68
2023/05/26 12:20:16;;;;;;;6.68;6.03;;;;;;;;;;5021571;28;20444;-68
2023/05/26 12:22:43;;;;;;;11.00;7.75;;;;;;;;;;5021277;28;20084;-68
2023/05/26 12:25:10;;;;;;;9.05;6.10;;;;;;;;;;5004742;28;20068;-71
2023/05/26 12:27:39;;;;;;;6.78;6.18;;;;;;;;;;5022232;28;20057;-67
2023/05/26 12:30:20;;;;;;;8.80;7.20;;;;;;;;;;5019819;28;20033;-69
2023/05/26 12:32:49;;;;;;;7.00;5.70;;;;;;;;;;5024490;28;20064;-69
2023/05/26 12:35:15;;;;;;;7.85;6.25;;;;;;;;;;5021035;28;20453;-68
2023/05/26 12:37:40;;;;;;;8.80;7.05;;;;;;;;;;5005466;28;20123;-63
2023/05/26 12:40:06;;;;;;;10.85;6.38;;;;;;;;;;5020107;28;20456;-74
2023/05/26 12:42:32;;;;;;;7.00;6.30;;;;;;;;;;5021231;28;20048;-74
2023/05/26 12:44:58;;;;;;;8.00;6.28;;;;;;;;;;5022347;28;20513;-74
2023/05/26 12:47:23;;;;;;;8.57;7.10;;;;;;;;;;5002852;28;20128;-71
2023/05/26 12:49:48;;;;;;;11.60;7.15;;;;;;;;;;5020370;28;20060;-70
2023/05/26 12:52:14;;;;;;;7.00;5.97;;;;;;;;;;5022069;28;20098;-73
2023/05/26 12:54:40;;;;;;;9.60;7.20;;;;;;;;;;5020037;28;20060;-73
2023/05/26 12:57:05;;;;;;;7.53;5.97;;;;;;;;;;5022415;28;20559;-74
2023/05/26 12:59:34;;;;;;;8.32;6.88;;;;;;;;;;4987020;28;20071;-71
2023/05/26 13:02:00;;;;;;;7.60;6.40;;;;;;;;;;5022286;28;20056;-72
2023/05/26 13:04:25;;;;;;;9.30;6.13;;;;;;;;;;5002540;28;20045;-72
2023/05/26 13:06:51;;;;;;;8.90;6.32;;;;;;;;;;5020935;28;20041;-73
2023/05/26 13:09:19;;;;;;;6.43;5.82;;;;;;;;;;5019104;28;20099;-71
2023/05/26 13:11:44;;;;;;;6.70;6.03;;;;;;;;;;5020421;28;20447;-73
2023/05/26 13:14:10;;;;;;;7.07;6.32;;;;;;;;;;5021114;28;20488;-74
2023/05/26 13:16:37;;;;;;;7.60;6.55;;;;;;;;;;5020327;28;20056;-71
2023/05/26 13:19:02;;;;;;;8.57;5.55;;;;;;;;;;5021608;28;20045;-69
2023/05/26 13:21:28;;;;;;;8.63;6.20;;;;;;;;;;5021307;28;20417;-70
2023/05/26 13:23:55;;;;;;;8.70;5.68;;;;;;;;;;5019856;28;20042;-73
2023/05/26 13:26:21;;;;;;;7.43;5.40;;;;;;;;;;5025269;28;20037;-71
2023/05/26 13:28:48;;;;;;;9.43;5.45;;;;;;;;;;5020999;28;20091;-75
2023/05/26 13:31:14;;;;;;;7.72;5.75;;;;;;;;;;5020161;28;20664;-72
2023/05/26 13:33:39;;;;;;;6.40;5.80;;;;;;;;;;5018067;28;20029;-73
2023/05/26 13:36:05;;;;;;;7.45;6.38;;;;;;;;;;5020282;28;20052;-60
2023/05/26 13:38:30;;;;;;;7.80;5.90;;;;;;;;;;5021161;28;20510;-65
2023/05/26 13:40:58;;;;;;;7.22;5.68;;;;;;;;;;5021231;28;20038;-66
2023/05/26 13:43:24;;;;;;;9.15;6.05;;;;;;;;;;5021703;28;20092;-66
2023/05/26 13:45:53;;;;;;;7.35;5.57;;;;;;;;;;5018659;28;20576;-68
2023/05/26 13:48:18;;;;;;;5.70;5.18;;;;;;;;;;5020837;28;20140;-66
2023/05/26 13:50:44;;;;;;;6.70;5.57;;;;;;;;;;5021291;28;20265;-71
2023/05/26 13:53:13;;;;;;;6.05;5.35;;;;;;;;;;5024485;28;20060;-71
2023/05/26 13:55:41;;;;;;;9.43;6.10;;;;;;;;;;5025859;28;20160;-69
2023/05/26 13:58:07;;;;;;;10.88;6.93;;;;;;;;;;5007799;28;20041;-69
2023/05/26 14:00:33;;;;;;;8.27;5.38;;;;;;;;;;5025472;28;20048;-68
2023/05/26 14:02:58;;;;;;;6.07;5.45;;;;;;;;;;5008940;28;20425;-71
2023/05/26 14:05:24;;;;;;;7.10;5.65;;;;;;;;;;5024309;28;20077;-69
2023/05/26 14:07:50;;;;;;;7.18;5.53;;;;;;;;;;5024174;28;20037;-73
2023/05/26 14:10:15;;;;;;;7.78;5.63;;;;;;;;;;5006551;28;21113;-68
2023/05/26 14:12:43;;;;;;;4.95;4.45;;;;;;;;;;5024368;28;20049;-69
2023/05/26 14:15:09;;;;;;;7.43;5.15;;;;;;;;;;5024752;28;20064;-69
2023/05/26 14:17:34;;;;;;;6.57;5.82;;;;;;;;;;5024225;28;20124;-71
2023/05/26 14:20:02;;;;;;;6.75;5.75;;;;;;;;;;5006509;28;20456;-68
2023/05/26 14:22:27;;;;;;;9.05;5.60;;;;;;;;;;5024203;28;20098;-74
2023/05/26 14:24:53;;;;;;;7.00;6.30;;;;;;;;;;5025333;28;20033;-71
2023/05/26 14:27:18;;;;;;;11.45;5.80;;;;;;;;;;5024697;28;20120;-72
2023/05/26 14:29:44;;;;;;;12.13;5.95;;;;;;;;;;5024852;28;20045;-72
2023/05/26 14:32:09;;;;;;;7.32;5.65;;;;;;;;;;5024799;28;20041;-74
2023/05/26 14:34:35;;;;;;;8.35;5.60;;;;;;;;;;5025558;28;20038;-72